Time;durP1;ratioP1;P1;durP2;ratioP2;P2;SDS_P1;SDS_P2;PMS_P1;PMS_P2;Temp;Humidity;BMP_temperature;BMP_pressure;BME280_temperature;BME280_humidity;BME280_pressure;Samples;Min_cycle;Max_cycle;Signal;HPM_P1;HPM_P2
2022/09/27 00:02:03;;;;;;;5.82;2.17;;;11.60;99.90;;;;;;5080798;28;20045;-65
2022/09/27 00:04:30;;;;;;;11.45;3.45;;;11.60;99.90;;;;;;5078869;28;20075;-65
2022/09/27 00:06:56;;;;;;;4.18;1.50;;;11.60;99.90;;;;;;5078384;28;20040;-65
2022/09/27 00:09:24;;;;;;;4.68;1.85;;;11.60;99.90;;;;;;5072509;28;20360;-65
2022/09/27 00:11:50;;;;;;;7.72;2.20;;;11.60;99.90;;;;;;5073800;28;20075;-65
2022/09/27 00:14:17;;;;;;;5.75;2.00;;;11.50;99.90;;;;;;5084473;28;20077;-65
2022/09/27 00:16:44;;;;;;;4.35;1.70;;;11.50;99.90;;;;;;5076196;28;20032;-65
2022/09/27 00:19:16;;;;;;;5.32;1.55;;;11.50;99.90;;;;;;5078804;28;20055;-65
2022/09/27 00:21:43;;;;;;;7.38;1.80;;;11.50;99.90;;;;;;5070764;28;20379;-65
2022/09/27 00:24:12;;;;;;;6.00;2.13;;;11.50;99.90;;;;;;5075003;28;20052;-65
2022/09/27 00:26:39;;;;;;;6.22;1.80;;;11.60;99.90;;;;;;5085816;28;20496;-65
2022/09/27 00:29:06;;;;;;;8.23;1.92;;;11.60;99.90;;;;;;5080916;28;20079;-65
2022/09/27 00:31:33;;;;;;;7.90;2.22;;;11.60;99.90;;;;;;5078813;28;20089;-65
2022/09/27 00:34:01;;;;;;;7.63;1.80;;;11.60;99.90;;;;;;5081323;28;20036;-65
2022/09/27 00:36:28;;;;;;;5.13;1.80;;;11.60;99.90;;;;;;5085864;28;20093;-65
2022/09/27 00:38:55;;;;;;;5.10;1.65;;;11.60;99.90;;;;;;5071935;28;20048;-65
2022/09/27 00:41:31;;;;;;;7.60;1.67;;;11.60;99.90;;;;;;5075213;28;20098;-65
2022/09/27 00:44:32;;;;;;;4.45;1.45;;;11.60;99.90;;;;;;5075408;28;20041;-65
2022/09/27 00:47:03;;;;;;;5.53;1.70;;;11.60;99.90;;;;;;5059032;28;20051;-65
2022/09/27 00:49:37;;;;;;;6.32;1.75;;;11.60;99.90;;;;;;5094666;28;20040;-65
2022/09/27 00:52:10;;;;;;;8.23;2.53;;;11.60;99.90;;;;;;5085586;28;20368;-65
2022/09/27 00:54:39;;;;;;;5.28;1.60;;;11.60;99.90;;;;;;5078810;28;20094;-65
2022/09/27 00:57:06;;;;;;;4.25;1.58;;;11.60;99.90;;;;;;5081779;28;20076;-65
2022/09/27 00:59:34;;;;;;;5.75;1.50;;;11.60;99.90;;;;;;5078405;28;20101;-64
2022/09/27 01:02:03;;;;;;;7.07;1.75;;;11.60;99.90;;;;;;5079931;28;20101;-65
2022/09/27 01:04:30;;;;;;;8.73;2.15;;;11.60;99.90;;;;;;5079335;28;20064;-64
2022/09/27 01:06:57;;;;;;;7.32;1.50;;;11.60;99.90;;;;;;5093775;28;20083;-65
2022/09/27 01:09:24;;;;;;;4.43;1.80;;;11.60;99.90;;;;;;5076237;28;20523;-65
2022/09/27 01:12:03;;;;;;;7.15;1.90;;;11.60;99.90;;;;;;5072310;28;20052;-65
2022/09/27 01:14:36;;;;;;;4.53;1.67;;;11.60;99.90;;;;;;5079205;28;20114;-65
2022/09/27 01:17:09;;;;;;;6.93;1.80;;;11.60;99.90;;;;;;5080955;28;20049;-65
2022/09/27 01:20:11;;;;;;;4.43;1.90;;;11.60;99.90;;;;;;5101971;28;20040;-66
2022/09/27 01:23:03;;;;;;;6.20;1.38;;;11.60;99.90;;;;;;5079789;28;20043;-65
2022/09/27 01:26:08;;;;;;;7.38;2.17;;;11.60;99.90;;;;;;5074023;28;20045;-65
2022/09/27 01:28:50;;;;;;;7.63;1.73;;;11.60;99.90;;;;;;5054087;28;20044;-65
2022/09/27 01:31:43;;;;;;;5.75;1.77;;;11.60;99.90;;;;;;5069435;28;20488;-65
2022/09/27 01:34:25;;;;;;;6.78;1.90;;;11.60;99.90;;;;;;5077050;28;20407;-65
2022/09/27 01:37:06;;;;;;;8.90;2.10;;;11.50;99.90;;;;;;5073290;28;20520;-65
2022/09/27 01:39:59;;;;;;;6.38;1.55;;;11.50;99.90;;;;;;5072897;28;20055;-65
2022/09/27 01:42:48;;;;;;;5.78;1.88;;;11.50;99.90;;;;;;5097732;28;20468;-65
2022/09/27 01:45:23;;;;;;;6.93;1.50;;;11.50;99.90;;;;;;5063446;28;20053;-65
2022/09/27 01:47:57;;;;;;;3.78;1.35;;;11.50;99.90;;;;;;5070604;28;20462;-65
2022/09/27 01:50:34;;;;;;;6.18;2.17;;;11.40;99.90;;;;;;5082423;28;20040;-65
2022/09/27 01:53:06;;;;;;;6.60;1.55;;;11.40;99.90;;;;;;5075258;28;20487;-65
2022/09/27 01:55:35;;;;;;;5.60;1.50;;;11.40;99.90;;;;;;5086790;28;20094;-65
2022/09/27 01:58:14;;;;;;;4.93;1.50;;;11.40;99.90;;;;;;5086613;28;20037;-65
2022/09/27 02:00:42;;;;;;;5.25;1.60;;;11.40;99.90;;;;;;5080817;28;20434;-65
2022/09/27 02:03:18;;;;;;;6.68;2.05;;;11.40;99.90;;;;;;5083459;28;20464;-65
2022/09/27 02:05:50;;;;;;;7.03;1.63;;;11.40;99.90;;;;;;5053558;28;20086;-65
2022/09/27 02:08:31;;;;;;;6.20;1.98;;;11.30;99.90;;;;;;5094940;28;20040;-65
2022/09/27 02:10:59;;;;;;;4.80;1.98;;;11.30;99.90;;;;;;5098710;28;20119;-65
2022/09/27 02:13:39;;;;;;;6.63;1.90;;;11.20;99.90;;;;;;5089213;28;20534;-65
2022/09/27 02:16:36;;;;;;;5.30;1.85;;;11.10;99.90;;;;;;5096984;28;20512;-66
2022/09/27 02:19:33;;;;;;;6.70;2.08;;;11.10;99.90;;;;;;5087710;28;20032;-65
2022/09/27 02:22:06;;;;;;;5.95;1.60;;;11.00;99.90;;;;;;5085400;28;20093;-65
2022/09/27 02:24:41;;;;;;;6.20;2.20;;;11.00;99.90;;;;;;5085507;28;20040;-65
2022/09/27 02:27:31;;;;;;;5.80;1.63;;;11.00;99.90;;;;;;5095876;28;20048;-65
2022/09/27 02:30:10;;;;;;;4.35;1.70;;;11.00;99.90;;;;;;5077519;28;20045;-65
2022/09/27 02:32:38;;;;;;;3.55;1.45;;;11.00;99.90;;;;;;5085878;28;20052;-65
2022/09/27 02:35:17;;;;;;;6.82;1.50;;;10.90;99.90;;;;;;5082162;28;20093;-65
2022/09/27 02:37:44;;;;;;;5.35;1.98;;;11.00;99.90;;;;;;5074326;28;20056;-65
2022/09/27 02:40:12;;;;;;;5.03;1.65;;;11.00;99.90;;;;;;5088263;28;20047;-65
2022/09/27 02:42:40;;;;;;;4.55;1.98;;;11.00;99.90;;;;;;5083290;28;20037;-65
2022/09/27 02:45:07;;;;;;;3.22;1.55;;;11.00;99.90;;;;;;5059815;28;20427;-65
2022/09/27 02:47:50;;;;;;;6.75;1.63;;;10.90;99.90;;;;;;5083608;28;20105;-65
2022/09/27 02:50:53;;;;;;;4.30;1.67;;;10.90;99.90;;;;;;5095630;28;20037;-65
2022/09/27 02:53:48;;;;;;;8.07;2.50;;;10.90;99.90;;;;;;5075945;28;20109;-65
2022/09/27 02:56:25;;;;;;;8.48;2.17;;;10.90;99.90;;;;;;5078034;28;20032;-66
2022/09/27 02:59:11;;;;;;;6.90;2.40;;;10.90;99.90;;;;;;5075840;28;20498;-65
2022/09/27 03:02:11;;;;;;;7.60;2.38;;;10.90;99.90;;;;;;5077397;28;20044;-65
2022/09/27 03:04:56;;;;;;;7.40;2.15;;;10.90;99.90;;;;;;5074023;28;20036;-65
2022/09/27 03:07:23;;;;;;;3.50;1.60;;;10.90;99.90;;;;;;5079659;28;20113;-65
2022/09/27 03:09:51;;;;;;;8.90;1.98;;;10.80;99.90;;;;;;5080423;28;20121;-65
2022/09/27 03:12:27;;;;;;;7.35;1.88;;;10.70;99.90;;;;;;5075364;28;20044;-65
2022/09/27 03:14:58;;;;;;;12.30;2.25;;;10.60;99.90;;;;;;5082293;28;20093;-65
2022/09/27 03:17:25;;;;;;;4.32;1.98;;;10.50;99.90;;;;;;5081702;28;20044;-65
2022/09/27 03:19:52;;;;;;;5.97;2.20;;;10.50;99.90;;;;;;5079450;28;20036;-65
2022/09/27 03:22:19;;;;;;;5.53;1.55;;;10.40;99.90;;;;;;5072043;28;20067;-65
2022/09/27 03:24:46;;;;;;;9.38;3.28;;;10.30;99.90;;;;;;5084285;28;20040;-65
2022/09/27 03:27:13;;;;;;;10.68;2.28;;;10.30;99.90;;;;;;5078028;28;20039;-65
2022/09/27 03:29:40;;;;;;;8.20;2.40;;;10.20;99.90;;;;;;5098522;28;20043;-66
2022/09/27 03:32:07;;;;;;;7.10;1.77;;;10.10;99.90;;;;;;5084351;28;20056;-66
2022/09/27 03:34:34;;;;;;;11.32;1.85;;;10.10;99.90;;;;;;5097243;28;20541;-66
2022/09/27 03:37:01;;;;;;;7.10;1.75;;;10.10;99.90;;;;;;5087816;28;20044;-66
2022/09/27 03:39:27;;;;;;;10.50;3.40;;;10.00;99.90;;;;;;5082009;28;20052;-66
2022/09/27 03:41:54;;;;;;;8.75;2.53;;;10.00;99.90;;;;;;5077864;28;20044;-66
2022/09/27 03:44:21;;;;;;;7.82;2.22;;;10.00;99.90;;;;;;5078968;28;20122;-66
2022/09/27 03:46:48;;;;;;;14.20;2.25;;;9.90;99.90;;;;;;5085451;28;20036;-66
2022/09/27 03:49:15;;;;;;;6.45;1.60;;;9.90;99.90;;;;;;5082246;28;20091;-64
2022/09/27 03:51:42;;;;;;;8.00;2.20;;;9.80;99.90;;;;;;5082490;28;20094;-66
2022/09/27 03:54:09;;;;;;;8.38;1.90;;;9.80;99.90;;;;;;5085158;28;20065;-66
2022/09/27 03:56:36;;;;;;;6.25;1.80;;;9.70;99.90;;;;;;5072175;28;20094;-66
2022/09/27 03:59:03;;;;;;;4.85;2.00;;;9.70;99.90;;;;;;5080225;28;20048;-66
2022/09/27 04:01:30;;;;;;;9.32;2.08;;;9.70;99.90;;;;;;5077855;28;20044;-66
2022/09/27 04:03:57;;;;;;;8.38;2.00;;;9.70;99.90;;;;;;5083415;28;20479;-66
2022/09/27 04:06:25;;;;;;;4.65;1.70;;;9.70;99.90;;;;;;5067867;28;20492;-66
2022/09/27 04:08:53;;;;;;;4.83;1.70;;;9.60;99.90;;;;;;5087943;28;20082;-66
2022/09/27 04:11:21;;;;;;;11.30;4.10;;;9.60;99.90;;;;;;5083807;28;20510;-66
2022/09/27 04:13:48;;;;;;;6.95;1.90;;;9.60;99.90;;;;;;5095388;28;20067;-64
2022/09/27 04:16:15;;;;;;;7.38;2.50;;;9.50;99.90;;;;;;5075068;28;20106;-66
2022/09/27 04:18:42;;;;;;;8.00;2.38;;;9.50;99.90;;;;;;5075283;28;20051;-65
2022/09/27 04:21:09;;;;;;;7.10;2.03;;;9.50;99.90;;;;;;5078219;28;20052;-64
2022/09/27 04:23:36;;;;;;;8.60;2.78;;;9.50;99.90;;;;;;5078774;28;20052;-65
2022/09/27 04:26:03;;;;;;;8.35;2.80;;;9.40;99.90;;;;;;5069073;28;20076;-65
2022/09/27 04:28:30;;;;;;;10.90;2.38;;;9.40;99.90;;;;;;5079199;28;20041;-64
2022/09/27 04:30:58;;;;;;;8.38;2.47;;;9.40;99.90;;;;;;5083976;28;20051;-64
2022/09/27 04:33:25;;;;;;;8.05;1.50;;;9.40;99.90;;;;;;5098594;28;20039;-66
2022/09/27 04:38:37;;;;;;;7.47;1.75;;;9.40;99.90;;;;;;5078624;28;20479;-66
2022/09/27 04:41:04;;;;;;;9.32;2.83;;;9.40;99.90;;;;;;5080520;28;20048;-66
2022/09/27 04:43:31;;;;;;;7.50;2.38;;;9.40;99.90;;;;;;5076514;28;20051;-67
2022/09/27 04:45:58;;;;;;;10.25;1.98;;;9.50;99.90;;;;;;5076212;28;20358;-66
2022/09/27 04:48:25;;;;;;;7.30;1.75;;;9.50;99.90;;;;;;5080543;28;20075;-66
2022/09/27 04:50:57;;;;;;;8.45;2.22;;;9.50;99.90;;;;;;5079806;28;20040;-66
2022/09/27 04:53:24;;;;;;;11.75;2.47;;;9.60;99.90;;;;;;5084437;28;20475;-66
2022/09/27 04:55:52;;;;;;;9.80;2.90;;;9.70;99.90;;;;;;5081509;28;20420;-66
2022/09/27 04:58:20;;;;;;;9.48;3.20;;;9.70;99.90;;;;;;5093146;28;20494;-66
2022/09/27 05:00:47;;;;;;;6.45;1.67;;;9.70;99.90;;;;;;5078193;28;20040;-66
2022/09/27 05:03:14;;;;;;;6.15;2.20;;;9.80;99.90;;;;;;5090463;28;20057;-66
2022/09/27 05:05:40;;;;;;;8.27;2.47;;;9.80;99.90;;;;;;5079932;28;20044;-64
2022/09/27 05:08:07;;;;;;;4.45;1.88;;;9.80;99.90;;;;;;5081296;28;20059;-64
2022/09/27 05:10:34;;;;;;;5.55;2.28;;;9.80;99.90;;;;;;5078320;28;20036;-64
2022/09/27 05:13:01;;;;;;;8.63;1.80;;;9.70;99.90;;;;;;5071484;28;20041;-64
2022/09/27 05:15:28;;;;;;;5.85;1.83;;;9.70;99.90;;;;;;5076983;28;20066;-65
2022/09/27 05:17:55;;;;;;;8.10;1.85;;;9.70;99.90;;;;;;5084253;28;20093;-64
2022/09/27 05:20:24;;;;;;;8.43;1.88;;;9.70;99.90;;;;;;5081088;28;20047;-66
2022/09/27 05:22:51;;;;;;;6.57;1.75;;;9.70;99.90;;;;;;5078771;28;20480;-64
2022/09/27 05:25:18;;;;;;;4.63;1.80;;;9.70;99.90;;;;;;5080149;28;20097;-64
2022/09/27 05:27:46;;;;;;;7.35;2.35;;;9.70;99.90;;;;;;5084439;28;20035;-64
2022/09/27 05:30:12;;;;;;;13.50;3.53;;;9.70;99.90;;;;;;5086999;28;20381;-64
2022/09/27 05:32:42;;;;;;;8.75;1.63;;;9.80;99.90;;;;;;5075955;28;20083;-66
2022/09/27 05:35:10;;;;;;;5.90;2.20;;;9.80;99.90;;;;;;5076349;28;20089;-64
2022/09/27 05:37:39;;;;;;;8.40;2.20;;;9.80;99.90;;;;;;5085091;28;20043;-66
2022/09/27 05:40:06;;;;;;;6.22;1.70;;;9.90;99.90;;;;;;5074172;28;20048;-66
2022/09/27 05:42:53;;;;;;;6.97;1.60;;;9.90;99.90;;;;;;5100232;28;20158;-66
2022/09/27 05:45:21;;;;;;;7.85;1.77;;;9.90;99.90;;;;;;5110105;28;20070;-64
2022/09/27 05:47:55;;;;;;;4.82;1.83;;;9.90;99.90;;;;;;5093126;28;20522;-65
2022/09/27 05:50:23;;;;;;;39.38;27.73;;;10.00;99.90;;;;;;5094785;28;20412;-64
2022/09/27 05:52:50;;;;;;;27.65;21.02;;;10.00;99.90;;;;;;5095227;28;20434;-66
2022/09/27 05:55:17;;;;;;;18.20;8.60;;;10.10;99.90;;;;;;5074421;28;20037;-63
2022/09/27 05:58:05;;;;;;;13.43;4.72;;;10.10;99.90;;;;;;5089538;28;20480;-67
2022/09/27 06:00:32;;;;;;;40.60;25.55;;;10.20;99.90;;;;;;5087428;28;20039;-66
2022/09/27 06:03:01;;;;;;;300.35;212.23;;;10.20;99.90;;;;;;5090996;28;20125;-65
2022/09/27 06:05:35;;;;;;;75.95;67.65;;;10.30;99.90;;;;;;5086307;28;20123;-66
2022/09/27 06:08:04;;;;;;;15.52;8.32;;;10.20;99.90;;;;;;5082942;28;20137;-65
2022/09/27 06:10:31;;;;;;;9.23;3.60;;;10.30;99.90;;;;;;5091128;28;20037;-66
2022/09/27 06:13:01;;;;;;;6.60;2.75;;;10.30;99.90;;;;;;5088148;28;20149;-65
2022/09/27 06:15:28;;;;;;;;;;;10.30;99.90;;;;;;5093898;28;20043;-66
2022/09/27 06:17:55;;;;;;;82.32;55.17;;;10.30;99.90;;;;;;5090003;28;19916;-65
2022/09/27 06:20:22;;;;;;;11.90;5.70;;;10.40;99.90;;;;;;5080127;28;20052;-64
2022/09/27 06:22:49;;;;;;;13.32;3.35;;;10.40;99.90;;;;;;5090185;28;20044;-64
2022/09/27 06:25:16;;;;;;;6.13;2.17;;;10.40;99.90;;;;;;5073387;28;20098;-64
2022/09/27 06:27:43;;;;;;;10.90;2.92;;;10.40;99.90;;;;;;5089378;28;20040;-64
2022/09/27 06:30:11;;;;;;;9.30;2.35;;;10.50;99.90;;;;;;5088963;28;20060;-64
2022/09/27 06:32:43;;;;;;;6.25;1.85;;;10.50;99.90;;;;;;5074507;28;20127;-64
2022/09/27 06:35:10;;;;;;;7.50;1.83;;;10.50;99.90;;;;;;5078764;28;20479;-66
2022/09/27 06:37:37;;;;;;;15.13;2.95;;;10.50;99.90;;;;;;5076146;28;20044;-65
2022/09/27 06:40:04;;;;;;;58.10;39.95;;;10.60;99.90;;;;;;5072246;28;20052;-66
2022/09/27 06:42:32;;;;;;;75.72;60.38;;;10.60;99.90;;;;;;5088914;28;20086;-67
2022/09/27 06:44:59;;;;;;;208.20;163.57;;;10.60;99.90;;;;;;5073457;28;20476;-64
2022/09/27 06:47:26;;;;;;;26.02;18.67;;;10.70;99.90;;;;;;5094133;28;20044;-67
2022/09/27 06:49:52;;;;;;;7.88;4.63;;;10.70;99.90;;;;;;5085588;28;20092;-64
2022/09/27 06:52:19;;;;;;;7.72;3.20;;;10.70;99.90;;;;;;5093022;28;20106;-64
2022/09/27 06:54:46;;;;;;;6.05;1.85;;;10.70;99.90;;;;;;5088384;28;20391;-65
2022/09/27 07:00:22;;;;;;;7.88;1.83;;;10.70;99.90;;;;;;5084045;28;20044;-66
2022/09/27 07:02:46;;;;;;;4.53;2.03;;;10.70;99.90;;;;;;5074308;28;20392;-65
2022/09/27 07:05:12;;;;;;;6.07;1.50;;;10.80;99.90;;;;;;5088699;28;20041;-65
2022/09/27 07:07:39;;;;;;;5.15;1.60;;;10.80;99.90;;;;;;5089744;28;20068;-63
2022/09/27 07:10:07;;;;;;;4.65;1.40;;;10.90;99.90;;;;;;5081249;28;20048;-64
2022/09/27 07:12:36;;;;;;;6.70;2.40;;;10.90;99.90;;;;;;5089196;28;20040;-63
2022/09/27 07:15:04;;;;;;;5.03;1.75;;;10.90;99.90;;;;;;5082860;28;20044;-62
2022/09/27 07:17:31;;;;;;;5.45;2.13;;;10.90;99.90;;;;;;5071125;28;20102;-62
2022/09/27 07:19:58;;;;;;;6.43;1.83;;;11.00;99.90;;;;;;5088549;28;20075;-62
2022/09/27 07:22:25;;;;;;;7.65;2.42;;;11.00;99.90;;;;;;5073273;28;20053;-61
2022/09/27 07:24:52;;;;;;;55.97;41.30;;;11.00;99.90;;;;;;5074509;28;20446;-64
2022/09/27 07:27:19;;;;;;;18.13;11.98;;;11.00;99.90;;;;;;5071424;28;20044;-63
2022/09/27 07:29:46;;;;;;;9.30;3.50;;;11.10;99.90;;;;;;5076246;28;20037;-62
2022/09/27 07:32:13;;;;;;;6.97;2.38;;;11.10;99.90;;;;;;5076929;28;20378;-62
2022/09/27 07:34:40;;;;;;;51.30;38.47;;;11.10;99.90;;;;;;5086907;28;20054;-63
2022/09/27 07:37:06;;;;;;;14.35;7.60;;;11.20;99.90;;;;;;5075934;28;20040;-62
2022/09/27 07:39:34;;;;;;;6.80;2.33;;;11.20;99.90;;;;;;5069340;28;20104;-61
2022/09/27 07:42:01;;;;;;;7.30;2.53;;;11.30;99.90;;;;;;5071064;28;20048;-61
2022/09/27 07:44:28;;;;;;;4.80;1.95;;;11.30;99.90;;;;;;5076798;28;20521;-62
2022/09/27 07:46:54;;;;;;;4.85;1.20;;;11.40;99.90;;;;;;5078821;28;20135;-61
2022/09/27 07:49:21;;;;;;;5.78;1.30;;;11.50;99.90;;;;;;5089151;28;20048;-61
2022/09/27 07:51:48;;;;;;;6.63;2.20;;;11.50;99.90;;;;;;5089238;28;20134;-61
2022/09/27 07:54:15;;;;;;;5.10;1.58;;;11.60;99.90;;;;;;5076855;28;20071;-61
2022/09/27 07:56:44;;;;;;;8.10;1.83;;;11.70;99.90;;;;;;5082422;28;20093;-62
2022/09/27 07:59:11;;;;;;;6.83;2.43;;;11.80;99.90;;;;;;5075551;28;20471;-62
2022/09/27 08:01:38;;;;;;;8.90;2.17;;;11.90;99.90;;;;;;5072190;28;20041;-63
2022/09/27 08:04:05;;;;;;;7.72;2.70;;;12.00;99.90;;;;;;5080528;28;20039;-63
2022/09/27 08:06:32;;;;;;;6.70;1.88;;;12.00;99.90;;;;;;5066304;28;20129;-64
2022/09/27 08:09:00;;;;;;;22.20;16.48;;;12.10;99.90;;;;;;5085334;28;20045;-64
2022/09/27 08:11:27;;;;;;;25.90;19.58;;;12.10;99.90;;;;;;5075916;28;20533;-62
2022/09/27 08:13:55;;;;;;;7.82;2.88;;;12.10;99.90;;;;;;5106247;28;20044;-62
2022/09/27 08:16:22;;;;;;;6.22;2.80;;;12.20;99.90;;;;;;5105150;28;20466;-62
2022/09/27 08:18:49;;;;;;;9.70;3.45;;;12.20;99.90;;;;;;5085076;28;20040;-64
2022/09/27 08:21:16;;;;;;;7.97;2.30;;;12.20;99.90;;;;;;5085861;28;20048;-64
2022/09/27 08:23:43;;;;;;;13.10;2.90;;;12.30;99.90;;;;;;5087846;28;20537;-64
2022/09/27 08:26:10;;;;;;;11.63;2.80;;;12.40;99.90;;;;;;5107968;28;20044;-65
2022/09/27 08:28:37;;;;;;;10.63;2.38;;;12.40;99.90;;;;;;5089285;28;20040;-64
2022/09/27 08:31:04;;;;;;;10.98;3.35;;;12.50;99.90;;;;;;5053802;28;20472;-64
2022/09/27 08:33:31;;;;;;;12.07;3.13;;;12.50;99.90;;;;;;5071669;28;20041;-65
2022/09/27 08:36:10;;;;;;;11.82;2.88;;;12.60;99.90;;;;;;5070653;28;20041;-64
2022/09/27 08:38:37;;;;;;;7.97;2.55;;;12.70;99.90;;;;;;5066748;28;20048;-64
2022/09/27 08:41:11;;;;;;;8.85;2.65;;;12.60;99.90;;;;;;5085926;28;20045;-64
2022/09/27 08:43:48;;;;;;;9.43;3.20;;;12.70;99.90;;;;;;5070283;28;20439;-64
2022/09/27 08:46:43;;;;;;;8.23;2.97;;;12.80;99.90;;;;;;5088208;28;20479;-64
2022/09/27 08:49:28;;;;;;;13.68;3.72;;;13.00;99.90;;;;;;5070338;28;20114;-64
2022/09/27 08:51:55;;;;;;;9.50;3.25;;;13.10;99.90;;;;;;5054909;28;20045;-64
2022/09/27 08:54:29;;;;;;;10.65;3.08;;;13.20;99.90;;;;;;5054357;28;20169;-64
2022/09/27 08:57:09;;;;;;;13.82;3.88;;;13.20;99.90;;;;;;5070680;28;20082;-64
2022/09/27 08:59:51;;;;;;;6.88;2.97;;;13.20;99.90;;;;;;5073074;28;20087;-64
2022/09/27 09:02:23;;;;;;;9.38;3.30;;;13.30;99.90;;;;;;5075095;28;20104;-64
2022/09/27 09:04:55;;;;;;;10.13;3.17;;;13.30;99.90;;;;;;5062581;28;20040;-65
2022/09/27 09:07:31;;;;;;;14.02;3.38;;;13.40;99.90;;;;;;5076275;28;20036;-64
2022/09/27 09:13:30;;;;;;;13.50;3.00;;;13.60;99.90;;;;;;5074546;28;20413;-64
2022/09/27 09:16:00;;;;;;;12.77;3.03;;;13.70;99.90;;;;;;5075020;28;20076;-64
2022/09/27 09:18:45;;;;;;;11.32;2.65;;;13.80;99.90;;;;;;5075975;28;20044;-64
2022/09/27 09:21:40;;;;;;;14.02;3.25;;;13.80;99.90;;;;;;5075341;28;20049;-65
2022/09/27 09:24:49;;;;;;;8.00;3.22;;;13.80;99.90;;;;;;5075537;28;20045;-64
2022/09/27 09:27:46;;;;;;;19.83;3.83;;;13.90;99.90;;;;;;5041792;28;20113;-64
2022/09/27 09:30:21;;;;;;;9.48;2.70;;;13.90;99.90;;;;;;5074509;28;20048;-64
2022/09/27 09:32:55;;;;;;;12.48;3.08;;;13.90;99.90;;;;;;5075251;28;20060;-65
2022/09/27 09:35:28;;;;;;;11.07;2.72;;;14.00;99.90;;;;;;5074245;28;20040;-64
2022/09/27 09:37:56;;;;;;;9.07;2.50;;;14.00;99.90;;;;;;5073874;28;20468;-64
2022/09/27 09:40:32;;;;;;;12.32;2.92;;;14.00;99.90;;;;;;5073596;28;20435;-64
2022/09/27 09:43:20;;;;;;;13.18;2.92;;;14.10;99.90;;;;;;5092627;28;20051;-64
2022/09/27 09:45:49;;;;;;;10.02;3.25;;;14.10;99.90;;;;;;5091397;28;20052;-64
2022/09/27 09:48:52;;;;;;;10.88;2.92;;;14.00;99.90;;;;;;5093806;28;20138;-64
2022/09/27 09:51:26;;;;;;;10.32;3.25;;;14.10;99.90;;;;;;5085022;28;20048;-65
2022/09/27 09:54:01;;;;;;;12.48;3.55;;;14.20;99.90;;;;;;5110683;28;20055;-64
2022/09/27 09:56:41;;;;;;;11.82;2.80;;;14.20;99.90;;;;;;5093561;28;20056;-65
2022/09/27 09:59:29;;;;;;;15.23;4.40;;;14.20;99.90;;;;;;5104927;28;20053;-65
2022/09/27 10:01:59;;;;;;;9.38;2.40;;;14.20;99.90;;;;;;5073651;28;20458;-64
2022/09/27 10:04:26;;;;;;;12.45;3.08;;;14.20;99.90;;;;;;5073584;28;20476;-64
2022/09/27 10:06:54;;;;;;;8.07;3.30;;;14.10;99.90;;;;;;5073532;28;20048;-63
2022/09/27 10:09:23;;;;;;;9.98;3.28;;;14.10;99.90;;;;;;5073167;28;20040;-64
2022/09/27 10:11:50;;;;;;;17.42;4.40;;;14.00;99.90;;;;;;5084434;28;20066;-64
2022/09/27 10:14:18;;;;;;;15.00;3.72;;;14.00;99.90;;;;;;5093033;28;20036;-64
2022/09/27 10:16:54;;;;;;;11.45;3.20;;;14.00;99.90;;;;;;5093037;28;20189;-64
2022/09/27 10:19:29;;;;;;;10.40;3.42;;;14.10;99.90;;;;;;5077591;28;20048;-64
2022/09/27 10:22:02;;;;;;;10.38;3.50;;;14.20;99.90;;;;;;5076731;28;20498;-64
2022/09/27 10:24:29;;;;;;;10.23;2.45;;;14.30;99.90;;;;;;5093139;28;20044;-65
2022/09/27 10:26:57;;;;;;;25.17;4.57;;;14.30;99.90;;;;;;5094466;28;20097;-64
2022/09/27 10:29:29;;;;;;;7.82;2.97;;;14.30;99.90;;;;;;5076323;28;20044;-64
2022/09/27 10:32:03;;;;;;;10.73;2.60;;;14.30;99.90;;;;;;5093331;28;20387;-64
2022/09/27 10:34:37;;;;;;;9.50;2.85;;;14.30;99.90;;;;;;5076453;28;20051;-64
2022/09/27 10:37:22;;;;;;;10.45;3.50;;;14.50;99.90;;;;;;5108626;28;20047;-64
2022/09/27 10:39:50;;;;;;;9.57;2.90;;;14.60;99.90;;;;;;5073906;28;20494;-64
2022/09/27 10:42:22;;;;;;;9.00;3.05;;;14.70;99.90;;;;;;5072737;28;20045;-64
2022/09/27 10:44:48;;;;;;;12.18;3.03;;;14.80;99.90;;;;;;5072139;28;20079;-65
2022/09/27 10:47:21;;;;;;;9.07;3.22;;;15.00;99.90;;;;;;5056347;28;20098;-64
2022/09/27 10:49:51;;;;;;;20.77;5.15;;;15.20;99.90;;;;;;5072654;28;20460;-64
2022/09/27 10:52:22;;;;;;;12.55;3.92;;;15.30;99.90;;;;;;5097510;28;20043;-63
2022/09/27 10:54:54;;;;;;;41.65;28.13;;;15.30;99.90;;;;;;5088584;28;20110;-65
2022/09/27 10:57:22;;;;;;;25.98;16.52;;;15.30;99.90;;;;;;5082672;28;20040;-63
2022/09/27 10:59:52;;;;;;;25.30;12.60;;;15.30;99.90;;;;;;5107666;28;20067;-63
2022/09/27 11:02:28;;;;;;;10.05;3.30;;;15.20;99.90;;;;;;5108226;28;20073;-63
2022/09/27 11:05:28;;;;;;;10.55;3.15;;;15.00;99.90;;;;;;5089272;28;20472;-62
2022/09/27 11:07:56;;;;;;;10.50;3.08;;;14.90;99.90;;;;;;5088472;28;20046;-64
2022/09/27 11:10:33;;;;;;;9.25;3.08;;;14.80;99.90;;;;;;5086569;28;20048;-63
2022/09/27 11:13:16;;;;;;;10.15;4.00;;;14.80;99.90;;;;;;5090043;28;20066;-63
2022/09/27 11:16:02;;;;;;;16.20;4.15;;;14.80;99.90;;;;;;5087972;28;20044;-63
2022/09/27 11:19:13;;;;;;;12.18;3.45;;;14.80;99.90;;;;;;5083372;28;20106;-64
2022/09/27 11:21:56;;;;;;;12.13;4.22;;;14.70;99.90;;;;;;5074612;28;20135;-64
2022/09/27 11:25:20;;;;;;;12.05;2.75;;;14.60;99.90;;;;;;5077725;28;20044;-63
2022/09/27 11:28:05;;;;;;;11.05;2.85;;;14.30;99.90;;;;;;5039097;28;20171;-65
2022/09/27 11:30:51;;;;;;;10.05;2.50;;;14.10;99.90;;;;;;5050494;28;20041;-63
2022/09/27 11:33:42;;;;;;;11.70;3.45;;;14.00;99.90;;;;;;5077662;28;20048;-62
2022/09/27 11:36:45;;;;;;;18.23;10.00;;;13.90;99.90;;;;;;5094420;28;20480;-61
2022/09/27 11:39:30;;;;;;;11.80;3.53;;;13.70;99.90;;;;;;5085233;28;20105;-60
2022/09/27 11:42:13;;;;;;;8.65;2.38;;;13.20;99.90;;;;;;5082094;28;20063;-61
2022/09/27 11:45:01;;;;;;;7.82;2.85;;;12.80;99.90;;;;;;5079669;28;20068;-60
2022/09/27 11:48:00;;;;;;;8.40;2.85;;;12.50;99.90;;;;;;5092383;28;20036;-60
2022/09/27 11:50:50;;;;;;;8.75;3.17;;;12.40;99.90;;;;;;5084276;28;20135;-62
2022/09/27 11:53:26;;;;;;;9.40;4.07;;;12.30;99.90;;;;;;5057905;28;20102;-59
2022/09/27 11:56:06;;;;;;;8.48;3.30;;;12.40;99.90;;;;;;5080640;28;20041;-59
2022/09/27 11:58:48;;;;;;;8.77;3.13;;;12.40;99.90;;;;;;5090052;28;20052;-61
2022/09/27 12:01:25;;;;;;;8.55;2.92;;;12.50;99.90;;;;;;5089922;28;20039;-60
2022/09/27 12:04:06;;;;;;;9.05;2.85;;;12.50;99.90;;;;;;5076889;28;20376;-60
2022/09/27 12:06:44;;;;;;;79.10;61.30;;;12.60;99.90;;;;;;5078014;28;20085;-61
2022/09/27 12:09:22;;;;;;;96.47;58.67;;;12.60;99.90;;;;;;5094671;28;20113;-61
2022/09/27 12:11:55;;;;;;;58.50;48.38;;;12.60;99.90;;;;;;5092612;28;20036;-62
2022/09/27 12:14:28;;;;;;;19.58;13.90;;;12.60;99.90;;;;;;5088035;28;20044;-61
2022/09/27 12:16:55;;;;;;;12.43;8.30;;;12.70;99.90;;;;;;5076471;28;20421;-60
2022/09/27 12:19:27;;;;;;;13.10;4.13;;;12.70;99.90;;;;;;5088936;28;20055;-60
2022/09/27 12:21:55;;;;;;;4.65;2.13;;;12.80;99.90;;;;;;5106047;28;20047;-63
2022/09/27 12:24:22;;;;;;;7.68;2.70;;;12.90;99.90;;;;;;5089154;28;20043;-62
2022/09/27 12:26:52;;;;;;;4.93;2.00;;;13.00;99.90;;;;;;5106192;28;20098;-61
2022/09/27 12:29:32;;;;;;;4.25;2.03;;;13.00;99.90;;;;;;5070675;28;20106;-62
2022/09/27 12:32:21;;;;;;;6.28;1.95;;;13.00;99.90;;;;;;5068308;28;20131;-63
2022/09/27 12:34:55;;;;;;;6.32;2.00;;;13.00;99.90;;;;;;5070689;28;20119;-63
2022/09/27 12:37:36;;;;;;;7.53;2.00;;;13.10;99.90;;;;;;5072333;28;20369;-60
2022/09/27 12:40:20;;;;;;;5.15;1.65;;;13.10;99.90;;;;;;5085548;28;20055;-61
2022/09/27 12:42:52;;;;;;;6.80;1.80;;;13.00;99.90;;;;;;5078710;28;20048;-61
2022/09/27 12:45:25;;;;;;;6.57;1.95;;;12.90;99.90;;;;;;5088708;28;20406;-61
2022/09/27 12:48:00;;;;;;;5.97;1.70;;;12.90;99.90;;;;;;5074205;28;20540;-60
2022/09/27 12:50:43;;;;;;;5.57;2.00;;;13.00;99.90;;;;;;5086399;28;20090;-63
2022/09/27 12:53:22;;;;;;;5.32;2.72;;;13.10;99.90;;;;;;5104344;28;20097;-60
2022/09/27 12:55:49;;;;;;;5.88;2.03;;;13.20;99.90;;;;;;5106360;28;20097;-63
2022/09/27 12:58:21;;;;;;;58.55;44.05;;;13.20;99.90;;;;;;5082606;28;20476;-60
2022/09/27 13:01:14;;;;;;;28.42;24.08;;;13.30;99.90;;;;;;5105411;28;20048;-61
2022/09/27 13:03:57;;;;;;;17.77;10.77;;;13.40;99.90;;;;;;5081638;28;20121;-61
2022/09/27 13:06:39;;;;;;;7.30;2.28;;;13.50;99.90;;;;;;5097830;28;20039;-62
2022/09/27 13:09:24;;;;;;;5.85;2.15;;;13.60;99.90;;;;;;5075452;28;20410;-63
2022/09/27 13:12:19;;;;;;;5.47;1.92;;;13.60;99.90;;;;;;5072873;28;20094;-61
2022/09/27 13:15:16;;;;;;;7.28;1.73;;;13.60;99.90;;;;;;5065258;28;20442;-65
2022/09/27 13:17:43;;;;;;;3.25;1.67;;;13.70;99.90;;;;;;5079877;28;20074;-62
2022/09/27 13:20:33;;;;;;;8.52;2.17;;;13.70;99.90;;;;;;5072168;28;20047;-62
2022/09/27 13:23:19;;;;;;;4.07;1.95;;;13.70;99.90;;;;;;5070004;28;20048;-61
2022/09/27 13:25:56;;;;;;;3.05;1.52;;;13.70;99.90;;;;;;5082376;28;20075;-62
2022/09/27 13:28:32;;;;;;;7.78;1.80;;;13.70;99.90;;;;;;5092831;28;20045;-63